FJL678 OPKC-OPIS
Flight info
| Callsign | FJL678 |
|---|---|
| Flight time | N/A |
| Altitude | 39000 |
| Route | BADUL B466 NH Z301 BELKO |
| Aircraft | A20N/M-SDE2E3FGHIRWXY/LB1 |
Departure
| Time | 2026-05-07 12:57 |
|---|---|
| Airport | Jinnah International Airport (OPKC) |
Arrival
| Time | N/A |
|---|---|
| Airport | Islamabad International Airport (OPIS) |
| Time | Latitude | Longitude | Altitude | Speed | Heading |
|---|---|---|---|---|---|
| 2026-05-07 12:39 | 24.90312 | 67.16907 | 98 ft | 0 kts | 164° |
| 2026-05-07 12:45 | 24.90320 | 67.16904 | 101 ft | 2 kts | 164° |
| 2026-05-07 12:45 | 24.90332 | 67.16901 | 101 ft | 2 kts | 164° |
| 2026-05-07 12:45 | 24.90345 | 67.16897 | 100 ft | 2 kts | 164° |
| 2026-05-07 12:45 | 24.90357 | 67.16893 | 99 ft | 2 kts | 164° |
| 2026-05-07 12:46 | 24.90369 | 67.16889 | 99 ft | 2 kts | 169° |
| 2026-05-07 12:46 | 24.90382 | 67.16887 | 99 ft | 2 kts | 184° |
| 2026-05-07 12:46 | 24.90395 | 67.16889 | 99 ft | 2 kts | 208° |
| 2026-05-07 12:46 | 24.90405 | 67.16897 | 100 ft | 2 kts | 227° |
| 2026-05-07 12:47 | 24.90413 | 67.16908 | 99 ft | 2 kts | 245° |
| 2026-05-07 12:47 | 24.90415 | 67.16914 | 100 ft | 0 kts | 260° |
| 2026-05-07 12:47 | 24.90415 | 67.16909 | 99 ft | 0 kts | 260° |
| 2026-05-07 12:52 | 24.90412 | 67.16889 | 99 ft | 8 kts | 261° |
| 2026-05-07 12:52 | 24.90398 | 67.16793 | 101 ft | 13 kts | 257° |
| 2026-05-07 12:52 | 24.90390 | 67.16765 | 101 ft | 8 kts | 253° |
| 2026-05-07 12:53 | 24.90435 | 67.16696 | 101 ft | 18 kts | 352° |
| 2026-05-07 12:53 | 24.90502 | 67.16814 | 101 ft | 21 kts | 83° |
| 2026-05-07 12:53 | 24.90548 | 67.16979 | 102 ft | 19 kts | 64° |
| 2026-05-07 12:53 | 24.90635 | 67.16999 | 103 ft | 0 kts | 342° |
| 2026-05-07 12:55 | 24.90637 | 67.16999 | 103 ft | 3 kts | 342° |
| 2026-05-07 12:55 | 24.90718 | 67.16965 | 107 ft | 19 kts | 321° |
| 2026-05-07 12:55 | 24.90724 | 67.16886 | 106 ft | 16 kts | 255° |
| 2026-05-07 12:56 | 24.90619 | 67.16471 | 103 ft | 94 kts | 253° |
| 2026-05-07 12:56 | 24.90378 | 67.15557 | 118 ft | 151 kts | 251° |
| 2026-05-07 12:56 | 24.90096 | 67.14405 | 458 ft | 165 kts | 257° |
| 2026-05-07 12:56 | 24.90415 | 67.13061 | 613 ft | 202 kts | 304° |
| 2026-05-07 12:57 | 24.91565 | 67.12168 | 1215 ft | 213 kts | 346° |
| 2026-05-07 12:57 | 24.93029 | 67.12429 | 1729 ft | 224 kts | 32° |
| 2026-05-07 12:57 | 24.94137 | 67.13594 | 2481 ft | 215 kts | 51° |
| 2026-05-07 12:57 | 24.95010 | 67.14901 | 3172 ft | 213 kts | 56° |
| 2026-05-07 12:58 | 24.95771 | 67.16284 | 3963 ft | 211 kts | 59° |
| 2026-05-07 12:58 | 24.96435 | 67.17705 | 4809 ft | 206 kts | 63° |
| 2026-05-07 12:58 | 24.97019 | 67.19153 | 5554 ft | 209 kts | 62° |
| 2026-05-07 12:58 | 24.97707 | 67.20565 | 6301 ft | 209 kts | 58° |
| 2026-05-07 12:59 | 24.98501 | 67.21923 | 7002 ft | 211 kts | 52° |
| 2026-05-07 12:59 | 24.99417 | 67.23224 | 7565 ft | 227 kts | 49° |
| 2026-05-07 12:59 | 25.00527 | 67.24526 | 8147 ft | 232 kts | 39° |
| 2026-05-07 12:59 | 25.01747 | 67.25677 | 9044 ft | 235 kts | 38° |
| 2026-05-07 13:00 | 25.03014 | 67.26930 | 9518 ft | 255 kts | 41° |
| 2026-05-07 13:00 | 25.04331 | 67.28370 | 9859 ft | 279 kts | 44° |
| 2026-05-07 13:00 | 25.05709 | 67.29995 | 10164 ft | 302 kts | 45° |
| 2026-05-07 13:00 | 25.07172 | 67.31784 | 10408 ft | 326 kts | 46° |
| 2026-05-07 13:01 | 25.08737 | 67.33719 | 10638 ft | 348 kts | 46° |
| 2026-05-07 13:01 | 25.10425 | 67.35751 | 10844 ft | 368 kts | 42° |
| 2026-05-07 13:01 | 25.12376 | 67.37628 | 11330 ft | 376 kts | 38° |
| 2026-05-07 13:01 | 25.14383 | 67.39474 | 12071 ft | 377 kts | 38° |
| 2026-05-07 13:02 | 25.16412 | 67.41352 | 12756 ft | 381 kts | 38° |
| 2026-05-07 13:02 | 25.18430 | 67.43222 | 13447 ft | 385 kts | 38° |
| 2026-05-07 13:02 | 25.20493 | 67.45135 | 14067 ft | 389 kts | 38° |
| 2026-05-07 13:02 | 25.22569 | 67.47059 | 14704 ft | 392 kts | 38° |
| 2026-05-07 13:03 | 25.24672 | 67.48999 | 15318 ft | 395 kts | 37° |
| 2026-05-07 13:03 | 25.26800 | 67.50943 | 15921 ft | 399 kts | 37° |
| 2026-05-07 13:03 | 25.28958 | 67.52907 | 16511 ft | 403 kts | 37° |
| 2026-05-07 13:03 | 25.31134 | 67.54892 | 17115 ft | 406 kts | 37° |
| 2026-05-07 13:04 | 25.33322 | 67.56890 | 17688 ft | 410 kts | 37° |
| 2026-05-07 13:04 | 25.35536 | 67.58914 | 18229 ft | 414 kts | 37° |
| 2026-05-07 13:04 | 25.37765 | 67.60956 | 18741 ft | 417 kts | 37° |
| 2026-05-07 13:04 | 25.39979 | 67.62985 | 19228 ft | 421 kts | 37° |
| 2026-05-07 13:05 | 25.42245 | 67.65062 | 19722 ft | 424 kts | 37° |
| 2026-05-07 13:05 | 25.44527 | 67.67154 | 20198 ft | 428 kts | 37° |
| 2026-05-07 13:05 | 25.46829 | 67.69268 | 20680 ft | 431 kts | 37° |
| 2026-05-07 13:05 | 25.49149 | 67.71398 | 21157 ft | 434 kts | 37° |